Página principal
METAR-TAF:

METAR-TAF

Aeroportos :

Aeroporto de Copenhaga

Copenhaga, Dinamarca

latitude: 55-37N, longitude: 012-39E, altura: 5 m

Observação actual do tempo

O boletim foi feito há 28 minutos, às 03:50 UTC
Vento 4 kt de es-sudeste
Temperatura 14°C
Humidade 82%
Pressão 1028 hPa
Visibilidade 10 km ou mais
sem nuvens abaixo de 1500 metros e sem cumulonimbus

METAR: EKCH 240350Z 12004KT CAVOK 14/11 Q1028 NOSIG

Hora: 06:18 (04:18 UTC)

Previsão

O boletim foi feito há 4 horas e 52 minutos, às 23:26 UTC
Previsão válida de 24 às 00 UTC a 24 às 24 UTC
Vento 5 kt de es-sudeste
Visibilidade 10 km ou mais
sem nuvens abaixo de 1500 metros e sem cumulonimbus
Tornando-se
de 24 às 09 UTC a 24 às 12 UTC
Vento 10 kt de sul
Tornando-se
de 24 às 14 UTC a 24 às 17 UTC
Vento 10 kt de este

TAF: EKCH 232326Z 2400/2424 12005KT CAVOK BECMG 2409/2412 19010KT BECMG 2414/2417 08010KT

Observações e previsões do tempo de mais de 4000 aeroportos (mensagens METAR e TAF).

As estações disponíveis são os pontos amarelos e vermelhos sobre o mapa.

Mova o rato sobre o mapa para ver o nome da estação.

Depois clique no ponto para visualizar as observações e previsões meteorológicas.

Para alterar o mapa : clique nos botões verdes com uma cruz preta para aumentar o zoom; no botão verde com uma pitada de zoom; ou nas setas verdes para mapas adjacentes.


METAR-TAF: